createdAt,value
2023-02-24T00:00:38.714Z,100414.06
2023-02-24T00:03:11.497Z,100401.94
2023-02-24T00:05:42.963Z,100411.38
2023-02-24T00:08:12.301Z,100405.34
2023-02-24T00:10:42.345Z,100395.19
2023-02-24T00:13:12.348Z,100396.66
2023-02-24T00:15:42.018Z,100404.63
2023-02-24T00:18:12.023Z,100400.84
2023-02-24T00:20:39.533Z,100402.31
2023-02-24T00:23:09.864Z,100399.84
2023-02-24T00:25:39.661Z,100399.47
2023-02-24T00:28:09.604Z,100396.72
2023-02-24T00:30:39.474Z,100393.00
2023-02-24T00:33:12.513Z,100392.13
2023-02-24T00:35:42.554Z,100387.50
2023-02-24T00:38:13.490Z,100384.38
2023-02-24T00:45:10.646Z,100379.69
2023-02-24T00:47:40.177Z,100371.91
2023-02-24T00:50:11.900Z,100368.69
2023-02-24T00:52:41.473Z,100371.28
2023-02-24T00:55:15.303Z,100363.94
2023-02-24T00:57:45.079Z,100362.06
2023-02-24T01:00:16.694Z,100356.47
2023-02-24T01:02:47.566Z,100354.13
2023-02-24T01:05:17.627Z,100349.50
2023-02-24T01:07:47.391Z,100353.69
2023-02-24T01:10:18.448Z,100365.22
2023-02-24T01:12:54.021Z,100359.56
2023-02-24T01:15:23.452Z,100356.28
2023-02-24T01:17:51.477Z,100366.41
2023-02-24T01:20:20.191Z,100370.19
2023-02-24T01:22:57.693Z,100367.28
2023-02-24T01:25:26.915Z,100364.84
2023-02-24T01:27:55.937Z,100367.47
2023-02-24T01:30:23.480Z,100359.06
2023-02-24T01:32:53.606Z,100362.88
2023-02-24T01:35:25.681Z,100371.22
2023-02-24T01:37:53.475Z,100355.19
2023-02-24T01:40:26.295Z,100359.72
2023-02-24T01:42:56.005Z,100359.84
2023-02-24T01:45:30.160Z,100364.31
2023-02-24T01:48:10.386Z,100371.47
2023-02-24T01:50:39.362Z,100355.03
2023-02-24T01:53:08.680Z,100354.69
2023-02-24T01:55:51.008Z,100356.41
2023-02-24T01:58:28.736Z,100346.88
2023-02-24T02:00:57.913Z,100346.69
2023-02-24T02:03:35.255Z,100341.78
2023-02-24T02:06:11.284Z,100346.13
2023-02-24T02:08:45.252Z,100344.78
2023-02-24T02:11:23.048Z,100338.84
2023-02-24T02:13:55.256Z,100336.66
2023-02-24T02:16:26.843Z,100334.50
2023-02-24T02:19:33.512Z,100344.78
2023-02-24T02:22:35.351Z,100333.63
2023-02-24T02:26:05.939Z,100336.28
2023-02-24T02:29:10.043Z,100332.16
2023-02-24T02:32:35.955Z,100328.31
2023-02-24T02:35:32.508Z,100321.59
2023-02-24T02:38:27.740Z,100323.50
2023-02-24T02:41:31.027Z,100317.31
2023-02-24T02:44:21.638Z,100317.09
2023-02-24T02:47:37.018Z,100318.19
2023-02-24T02:50:55.000Z,100313.13
2023-02-24T02:53:49.475Z,100324.13
2023-02-24T02:56:34.633Z,100324.16
2023-02-24T02:59:12.876Z,100323.66
2023-02-24T03:01:47.278Z,100326.78
2023-02-24T03:04:23.295Z,100335.84
2023-02-24T03:07:02.626Z,100330.09
2023-02-24T03:09:45.762Z,100322.72
2023-02-24T03:12:23.102Z,100326.78
2023-02-24T03:15:04.702Z,100321.56
2023-02-24T03:17:46.070Z,100319.09
2023-02-24T03:21:07.796Z,100319.94
2023-02-24T03:23:50.740Z,100313.66
2023-02-24T03:26:53.241Z,100316.97
2023-02-24T03:29:50.919Z,100311.72
2023-02-24T03:32:55.010Z,100313.09
2023-02-24T03:35:36.194Z,100300.53
2023-02-24T03:38:06.917Z,100301.66
2023-02-24T03:40:35.782Z,100299.09
2023-02-24T03:43:19.665Z,100298.66
2023-02-24T03:45:50.076Z,100292.00
2023-02-24T03:48:21.940Z,100304.34
2023-02-24T03:50:53.241Z,100281.94
2023-02-24T03:53:48.625Z,100281.38
2023-02-24T03:56:58.763Z,100283.28
2023-02-24T03:59:57.748Z,100268.56
2023-02-24T04:02:33.966Z,100267.19
2023-02-24T04:05:21.934Z,100269.66
2023-02-24T04:08:05.389Z,100270.09
2023-02-24T04:11:23.029Z,100263.50
2023-02-24T04:14:24.849Z,100263.03
2023-02-24T04:17:30.600Z,100264.97
2023-02-24T04:20:29.812Z,100261.09
2023-02-24T04:23:15.484Z,100261.13
2023-02-24T04:25:53.328Z,100258.97
2023-02-24T04:28:27.459Z,100255.13
2023-02-24T04:31:10.765Z,100248.53
2023-02-24T04:33:41.080Z,100245.25
2023-02-24T04:36:12.979Z,100245.31
2023-02-24T04:38:43.201Z,100245.03
2023-02-24T04:41:21.402Z,100233.28
2023-02-24T04:43:52.153Z,100232.47
2023-02-24T04:46:23.553Z,100238.44
2023-02-24T04:48:53.701Z,100231.66
2023-02-24T04:51:23.812Z,100228.88
2023-02-24T04:53:55.471Z,100229.72
2023-02-24T04:56:25.574Z,100220.16
2023-02-24T04:58:56.077Z,100222.88
2023-02-24T05:01:24.211Z,100213.31
2023-02-24T05:03:52.654Z,100215.00
2023-02-24T05:06:21.138Z,100221.19
2023-02-24T05:08:48.410Z,100216.56
2023-02-24T05:11:21.227Z,100208.13
2023-02-24T05:13:48.483Z,100215.19
2023-02-24T05:16:20.511Z,100205.63
2023-02-24T05:18:50.588Z,100202.66
2023-02-24T05:21:35.716Z,100201.91
2023-02-24T05:24:08.572Z,100204.06
2023-02-24T05:26:43.535Z,100199.63
2023-02-24T05:29:12.583Z,100195.16
2023-02-24T05:31:42.720Z,100192.78
2023-02-24T05:34:17.238Z,100193.94
2023-02-24T05:36:49.204Z,100187.94
2023-02-24T05:39:19.840Z,100176.34
2023-02-24T05:41:50.880Z,100179.28
2023-02-24T05:44:22.814Z,100183.19
2023-02-24T05:47:00.661Z,100176.91
2023-02-24T05:49:34.475Z,100177.16
2023-02-24T05:52:09.066Z,100167.31
2023-02-24T05:54:45.242Z,100164.34
2023-02-24T05:57:21.565Z,100164.69
2023-02-24T05:59:51.153Z,100160.56
2023-02-24T06:02:27.901Z,100158.66
2023-02-24T06:04:57.112Z,100152.84
2023-02-24T06:07:34.560Z,100153.69
2023-02-24T06:10:10.042Z,100152.91
2023-02-24T06:12:40.142Z,100151.50
2023-02-24T06:15:10.718Z,100149.63
2023-02-24T06:17:39.729Z,100142.97
2023-02-24T06:20:15.615Z,100152.59
2023-02-24T06:22:44.881Z,100143.56
2023-02-24T06:25:14.632Z,100130.72
2023-02-24T06:27:45.039Z,100131.84
2023-02-24T06:30:15.254Z,100134.75
2023-02-24T06:32:45.002Z,100136.63
2023-02-24T06:35:15.996Z,100134.22
2023-02-24T06:37:45.588Z,100130.94
2023-02-24T06:40:18.288Z,100123.22
2023-02-24T06:42:55.197Z,100123.75
2023-02-24T06:45:26.343Z,100122.69
2023-02-24T06:47:56.421Z,100122.34
2023-02-24T06:50:23.878Z,100121.53
2023-02-24T06:53:00.738Z,100121.63
2023-02-24T06:55:30.744Z,100115.41
2023-02-24T06:58:04.789Z,100110.78
2023-02-24T07:00:41.667Z,100116.69
2023-02-24T07:03:17.502Z,100109.88
2023-02-24T07:05:54.444Z,100109.34
2023-02-24T07:08:27.454Z,100119.69
2023-02-24T07:10:59.956Z,100104.88
2023-02-24T07:13:30.004Z,100106.81
2023-02-24T07:16:11.847Z,100095.78
2023-02-24T07:18:43.030Z,100085.88
2023-02-24T07:21:13.103Z,100087.53
2023-02-24T07:23:45.764Z,100090.28
2023-02-24T07:26:23.212Z,100090.03
2023-02-24T07:28:55.392Z,100072.28
2023-02-24T07:31:26.433Z,100080.47
2023-02-24T07:33:57.435Z,100077.75
2023-02-24T07:36:30.385Z,100066.97
2023-02-24T07:38:59.985Z,100065.03
2023-02-24T07:41:31.362Z,100064.25
2023-02-24T07:44:03.423Z,100057.41
2023-02-24T07:46:33.559Z,100053.69
2023-02-24T07:49:03.840Z,100055.38
2023-02-24T07:51:33.640Z,100056.47
2023-02-24T07:54:03.600Z,100050.88
2023-02-24T07:56:34.208Z,100036.88
2023-02-24T07:59:09.839Z,100038.06
2023-02-24T08:01:49.723Z,100027.66
2023-02-24T08:04:27.678Z,100017.81
2023-02-24T08:07:02.936Z,100020.72
2023-02-24T08:09:47.030Z,100009.66
2023-02-24T08:12:22.889Z,100001.78
2023-02-24T08:15:00.360Z,99998.97
2023-02-24T08:17:30.486Z,99986.13
2023-02-24T08:20:12.705Z,99994.50
2023-02-24T08:22:52.254Z,99983.34
2023-02-24T08:25:36.103Z,99975.13
2023-02-24T08:28:15.155Z,99980.84
2023-02-24T08:30:46.388Z,99971.03
2023-02-24T08:33:23.370Z,99967.25
2023-02-24T08:36:02.483Z,99976.47
2023-02-24T08:38:44.705Z,99966.31
2023-02-24T08:41:21.301Z,99953.78
2023-02-24T08:43:51.643Z,99960.19
2023-02-24T08:46:36.969Z,99958.50
2023-02-24T08:49:10.970Z,99946.09
2023-02-24T08:51:44.113Z,99948.91
2023-02-24T08:54:32.073Z,99947.13
2023-02-24T08:57:08.254Z,99937.44
2023-02-24T08:59:38.121Z,99929.97
2023-02-24T09:02:23.524Z,99927.28
2023-02-24T09:05:04.771Z,99919.28
2023-02-24T09:07:41.617Z,99918.47
2023-02-24T09:10:19.201Z,99911.13
2023-02-24T09:12:49.451Z,99901.72
2023-02-24T09:15:20.683Z,99898.16
2023-02-24T09:17:51.078Z,99884.97
2023-02-24T09:20:27.649Z,99885.47
2023-02-24T09:23:07.768Z,99890.47
2023-02-24T09:25:49.482Z,99882.47
2023-02-24T09:28:32.821Z,99884.25
2023-02-24T09:31:04.989Z,99885.03
2023-02-24T09:33:42.039Z,99889.31
2023-02-24T09:36:30.232Z,99871.38
2023-02-24T09:39:01.535Z,99874.53
2023-02-24T09:41:54.674Z,99871.47
2023-02-24T09:44:48.333Z,99867.41
2023-02-24T09:47:57.952Z,99862.25
2023-02-24T09:51:02.808Z,99854.63
2023-02-24T09:53:41.944Z,99847.19
2023-02-24T09:56:42.584Z,99856.84
2023-02-24T09:59:51.075Z,99842.94
2023-02-24T10:03:00.191Z,99852.91
2023-02-24T10:06:15.038Z,99832.47
2023-02-24T10:09:11.832Z,99824.41
2023-02-24T10:11:55.653Z,99827.16
2023-02-24T10:14:43.764Z,99824.53
2023-02-24T10:17:40.352Z,99813.25
2023-02-24T10:20:40.076Z,99806.63
2023-02-24T10:23:34.425Z,99811.13
2023-02-24T10:26:34.840Z,99801.44
2023-02-24T10:29:33.434Z,99800.47
2023-02-24T10:32:53.709Z,99804.81
2023-02-24T10:35:26.192Z,99793.44
2023-02-24T10:38:05.300Z,99789.81
2023-02-24T10:40:56.801Z,99779.53
2023-02-24T10:43:30.675Z,99771.75
2023-02-24T10:46:17.539Z,99763.78
2023-02-24T10:49:00.645Z,99765.66
2023-02-24T10:51:42.027Z,99755.47
2023-02-24T10:54:44.950Z,99754.50
2023-02-24T10:57:36.707Z,99743.53
2023-02-24T11:00:32.857Z,99739.78
2023-02-24T11:03:22.065Z,99742.72
2023-02-24T11:06:04.059Z,99733.50
2023-02-24T11:08:39.958Z,99732.06
2023-02-24T11:11:30.981Z,99724.25
2023-02-24T11:14:23.935Z,99721.72
2023-02-24T11:17:14.677Z,99724.97
2023-02-24T11:19:55.281Z,99719.28
2023-02-24T11:22:41.630Z,99711.41
2023-02-24T11:25:42.009Z,99702.34
2023-02-24T11:28:54.100Z,99700.69
2023-02-24T11:31:42.815Z,99692.84
2023-02-24T11:34:54.068Z,99700.81
2023-02-24T11:38:09.716Z,99696.28
2023-02-24T11:40:53.407Z,99690.94
2023-02-24T11:43:33.525Z,99679.63
2023-02-24T11:46:39.981Z,99668.34
2023-02-24T11:49:47.174Z,99668.53
2023-02-24T11:52:33.482Z,99660.56
2023-02-24T11:55:42.616Z,99659.25
2023-02-24T11:58:46.577Z,99652.34
2023-02-24T12:02:00.296Z,99646.13
2023-02-24T12:04:51.063Z,99647.69
2023-02-24T12:07:48.712Z,99635.19
2023-02-24T12:10:28.304Z,99627.56
2023-02-24T12:13:51.382Z,99612.63
2023-02-24T12:16:53.354Z,99619.50
2023-02-24T12:19:44.399Z,99603.44
2023-02-24T12:22:18.070Z,99596.72
2023-02-24T12:24:52.789Z,99597.03
2023-02-24T12:27:42.400Z,99591.47
2023-02-24T12:31:12.461Z,99590.88
2023-02-24T12:34:12.189Z,99585.84
2023-02-24T12:37:39.521Z,99580.09
2023-02-24T12:41:26.669Z,99570.47
2023-02-24T12:45:17.973Z,99569.72
2023-02-24T12:48:15.455Z,99564.47
2023-02-24T12:51:09.529Z,99554.13
2023-02-24T12:54:05.011Z,99554.47
2023-02-24T12:57:13.534Z,99550.66
2023-02-24T12:59:44.382Z,99538.44
2023-02-24T13:02:40.473Z,99528.38
2023-02-24T13:05:53.616Z,99527.06
2023-02-24T13:09:02.469Z,99518.69
2023-02-24T13:12:15.704Z,99517.28
2023-02-24T13:14:50.350Z,99501.25
2023-02-24T13:17:27.148Z,99500.88
2023-02-24T13:19:57.609Z,99489.56
2023-02-24T13:22:33.083Z,99482.00
2023-02-24T13:25:09.172Z,99475.78
2023-02-24T13:27:43.193Z,99477.72
2023-02-24T13:30:15.864Z,99482.69
2023-02-24T13:33:01.203Z,99466.13
2023-02-24T13:35:37.352Z,99462.72
2023-02-24T13:38:23.185Z,99451.50
2023-02-24T13:40:53.412Z,99456.66
2023-02-24T13:43:30.922Z,99454.81
2023-02-24T13:46:18.549Z,99450.09
2023-02-24T13:49:51.033Z,99441.38
2023-02-24T13:53:09.383Z,99436.41
2023-02-24T13:56:39.784Z,99427.56
2023-02-24T13:59:36.980Z,99426.63
2023-02-24T14:02:22.511Z,99416.09
2023-02-24T14:05:00.341Z,99419.50
2023-02-24T14:07:39.770Z,99412.03
2023-02-24T14:10:25.294Z,99414.91
2023-02-24T14:13:22.368Z,99402.66
2023-02-24T14:15:53.515Z,99401.91
2023-02-24T14:18:29.857Z,99402.56
2023-02-24T14:20:59.991Z,99393.84
2023-02-24T14:23:34.759Z,99404.34
2023-02-24T14:26:18.702Z,99392.94
2023-02-24T14:29:03.402Z,99388.66
2023-02-24T14:31:35.065Z,99380.28
2023-02-24T14:34:09.226Z,99392.31
2023-02-24T14:36:46.296Z,99375.25
2023-02-24T14:39:21.032Z,99368.38
2023-02-24T14:42:11.014Z,99372.59
2023-02-24T14:44:52.052Z,99366.50
2023-02-24T14:47:29.054Z,99356.19
2023-02-24T14:50:05.567Z,99354.25
2023-02-24T14:53:05.575Z,99352.31
2023-02-24T14:55:47.064Z,99347.59
2023-02-24T14:58:57.715Z,99345.81
2023-02-24T15:01:57.843Z,99341.34
2023-02-24T15:04:37.633Z,99339.41
2023-02-24T15:07:28.992Z,99343.47
2023-02-24T15:10:02.726Z,99333.13
2023-02-24T15:12:57.436Z,99319.75
2023-02-24T15:15:38.577Z,99316.50
2023-02-24T15:18:29.713Z,99318.25
2023-02-24T15:21:08.049Z,99308.16
2023-02-24T15:23:39.062Z,99299.59
2023-02-24T15:26:33.197Z,99300.22
2023-02-24T15:29:26.798Z,99293.09
2023-02-24T15:32:01.054Z,99293.47
2023-02-24T15:34:36.944Z,99283.50
2023-02-24T15:37:42.412Z,99277.53
2023-02-24T15:40:25.940Z,99276.81
2023-02-24T15:43:11.857Z,99276.34
2023-02-24T15:45:42.053Z,99274.75
2023-02-24T15:48:26.856Z,99266.34
2023-02-24T15:51:06.037Z,99260.56
2023-02-24T15:53:36.153Z,99245.13
2023-02-24T15:56:06.239Z,99251.53
2023-02-24T15:58:41.461Z,99243.84
2023-02-24T16:06:21.678Z,99242.34
2023-02-24T16:08:58.039Z,99237.63
2023-02-24T16:11:39.854Z,99225.56
2023-02-24T16:14:18.075Z,99222.75
2023-02-24T16:16:48.337Z,99227.72
2023-02-24T16:19:18.475Z,99214.66
2023-02-24T16:21:48.552Z,99219.00
2023-02-24T16:24:21.177Z,99211.63
2023-02-24T16:26:51.640Z,99211.72
2023-02-24T16:29:21.728Z,99212.22
2023-02-24T16:31:52.022Z,99215.00
2023-02-24T16:34:22.277Z,99209.31
2023-02-24T16:36:52.328Z,99203.03
2023-02-24T16:39:22.439Z,99213.75
2023-02-24T16:41:52.505Z,99203.22
2023-02-24T16:44:23.468Z,99205.16
2023-02-24T16:46:53.536Z,99208.06
2023-02-24T16:49:24.151Z,99198.25
2023-02-24T16:51:57.215Z,99196.84
2023-02-24T16:54:29.348Z,99190.06
2023-02-24T16:56:59.604Z,99196.56
2023-02-24T16:59:29.659Z,99187.72
2023-02-24T17:01:59.787Z,99193.63
2023-02-24T17:04:32.181Z,99190.16
2023-02-24T17:07:02.397Z,99182.47
2023-02-24T17:09:33.651Z,99180.03
2023-02-24T17:12:04.168Z,99177.13
2023-02-24T17:14:34.437Z,99166.16
2023-02-24T17:17:04.714Z,99168.28
2023-02-24T17:19:32.955Z,99172.75
2023-02-24T17:22:01.351Z,99155.22
2023-02-24T17:24:30.008Z,99154.44
2023-02-24T17:26:59.960Z,99158.97
2023-02-24T17:29:29.617Z,99165.03
2023-02-24T17:31:59.744Z,99162.63
2023-02-24T17:34:29.971Z,99168.28
2023-02-24T17:37:00.018Z,99151.16
2023-02-24T17:39:30.196Z,99153.31
2023-02-24T17:42:00.325Z,99147.84
2023-02-24T17:44:30.371Z,99151.16
2023-02-24T17:47:00.359Z,99146.63
2023-02-24T17:49:30.395Z,99148.44
2023-02-24T17:52:00.405Z,99143.78
2023-02-24T17:54:30.619Z,99144.38
2023-02-24T17:57:00.729Z,99145.91
2023-02-24T17:59:30.797Z,99128.59
2023-02-24T18:02:02.396Z,99121.97
2023-02-24T18:04:32.614Z,99116.19
2023-02-24T18:07:02.734Z,99116.81
2023-02-24T18:09:32.949Z,99119.56
2023-02-24T18:12:05.081Z,99111.19
2023-02-24T18:14:35.463Z,99097.88
2023-02-24T18:17:05.516Z,99103.44
2023-02-24T18:19:35.597Z,99095.03
2023-02-24T18:22:05.922Z,99099.53
2023-02-24T18:24:39.337Z,99094.22
2023-02-24T18:27:09.504Z,99086.66
2023-02-24T18:29:39.640Z,99086.34
2023-02-24T18:32:10.794Z,99089.78
2023-02-24T18:34:40.933Z,99085.53
2023-02-24T18:37:11.091Z,99090.19
2023-02-24T18:39:41.205Z,99076.72
2023-02-24T18:42:15.141Z,99073.84
2023-02-24T18:44:45.261Z,99069.31
2023-02-24T18:47:13.652Z,99073.34
2023-02-24T18:49:42.001Z,99070.91
2023-02-24T18:52:11.846Z,99069.59
2023-02-24T18:54:39.675Z,99054.50
2023-02-24T18:57:07.464Z,99059.97
2023-02-24T18:59:35.822Z,99054.34
2023-02-24T19:02:04.261Z,99051.25
2023-02-24T19:04:32.793Z,99049.34
2023-02-24T19:07:01.416Z,99052.59
2023-02-24T19:09:29.518Z,99038.69
2023-02-24T19:11:59.136Z,99036.34
2023-02-24T19:14:28.254Z,99040.00
2023-02-24T19:16:55.686Z,99042.84
2023-02-24T19:19:24.688Z,99033.81
2023-02-24T19:21:52.741Z,99031.88
2023-02-24T19:24:21.858Z,99028.81
2023-02-24T19:26:52.653Z,99035.09
2023-02-24T19:29:22.444Z,99027.38
2023-02-24T19:31:54.324Z,99029.88
2023-02-24T19:34:24.653Z,99017.94
2023-02-24T19:36:54.429Z,99022.66
2023-02-24T19:39:24.412Z,99017.81
2023-02-24T19:41:54.937Z,99017.50
2023-02-24T19:44:25.209Z,99013.06
2023-02-24T19:46:55.238Z,99008.09
2023-02-24T19:49:25.997Z,99002.06
2023-02-24T19:51:59.300Z,98999.84
2023-02-24T19:54:29.046Z,98995.34
2023-02-24T19:57:00.353Z,98991.78
2023-02-24T19:59:29.185Z,98988.00
2023-02-24T20:01:59.317Z,98991.13
2023-02-24T20:04:29.175Z,98999.69
2023-02-24T20:06:59.315Z,98992.44
2023-02-24T20:09:29.105Z,98989.38
2023-02-24T20:12:00.772Z,98989.44
2023-02-24T20:14:30.875Z,98983.16
2023-02-24T20:17:00.835Z,98976.19
2023-02-24T20:19:29.108Z,98981.41
2023-02-24T20:21:57.483Z,98982.53
2023-02-24T20:24:27.088Z,98975.81
2023-02-24T20:26:54.419Z,98970.78
2023-02-24T20:29:23.054Z,98972.72
2023-02-24T20:31:51.469Z,98972.78
2023-02-24T20:34:19.648Z,98968.63
2023-02-24T20:36:48.211Z,98957.53
2023-02-24T20:39:16.659Z,98962.00
2023-02-24T20:41:45.624Z,98958.44
2023-02-24T20:44:13.326Z,98960.88
2023-02-24T20:46:41.920Z,98956.69
2023-02-24T20:49:15.040Z,98953.38
2023-02-24T20:51:45.203Z,98952.84
2023-02-24T20:54:16.785Z,98944.00
2023-02-24T20:56:46.829Z,98946.78
2023-02-24T20:59:22.045Z,98952.06
2023-02-24T21:01:51.761Z,98938.03
2023-02-24T21:04:22.116Z,98941.25
2023-02-24T21:06:52.100Z,98937.22
2023-02-24T21:09:22.341Z,98929.81
2023-02-24T21:11:51.922Z,98935.78
2023-02-24T21:14:23.017Z,98930.19
2023-02-24T21:16:53.037Z,98934.25
2023-02-24T21:19:21.539Z,98929.75
2023-02-24T21:21:49.958Z,98923.41
2023-02-24T21:24:18.443Z,98925.81
2023-02-24T21:26:47.545Z,98908.13
2023-02-24T21:29:15.261Z,98909.13
2023-02-24T21:31:44.055Z,98895.81
2023-02-24T21:34:12.322Z,98888.50
2023-02-24T21:36:40.495Z,98889.00
2023-02-24T21:39:14.646Z,98881.63
2023-02-24T21:41:45.375Z,98887.41
2023-02-24T21:44:15.695Z,98884.97
2023-02-24T21:46:45.828Z,98888.19
2023-02-24T21:49:18.317Z,98886.25
2023-02-24T21:51:51.624Z,98880.75
2023-02-24T21:54:22.131Z,98883.72
2023-02-24T21:56:52.594Z,98870.19
2023-02-24T21:59:22.937Z,98873.72
2023-02-24T22:01:54.313Z,98871.94
2023-02-24T22:04:24.568Z,98874.91
2023-02-24T22:06:54.747Z,98860.84
2023-02-24T22:09:25.632Z,98862.59
2023-02-24T22:11:53.303Z,98859.03
2023-02-24T22:14:21.441Z,98850.03
2023-02-24T22:16:51.551Z,98846.69
2023-02-24T22:19:21.315Z,98850.69
2023-02-24T22:21:51.409Z,98846.97
2023-02-24T22:24:21.137Z,98845.75
2023-02-24T22:26:51.160Z,98844.28
2023-02-24T22:29:21.299Z,98838.47
2023-02-24T22:31:51.290Z,98838.16
2023-02-24T22:34:21.064Z,98843.00
2023-02-24T22:36:50.870Z,98834.13
2023-02-24T22:39:20.783Z,98835.13
2023-02-24T22:41:52.287Z,98838.16
2023-02-24T22:44:22.324Z,98834.81
2023-02-24T22:46:52.376Z,98839.94
2023-02-24T22:49:22.242Z,98839.00
2023-02-24T22:51:51.917Z,98829.16
2023-02-24T22:54:21.936Z,98838.03
2023-02-24T22:56:55.998Z,98831.41
2023-02-24T22:59:24.571Z,98828.69
2023-02-24T23:01:51.782Z,98827.41
2023-02-24T23:04:21.465Z,98821.59
2023-02-24T23:06:53.588Z,98826.72
2023-02-24T23:09:21.916Z,98825.59
2023-02-24T23:11:51.870Z,98828.34
2023-02-24T23:14:20.707Z,98822.88
2023-02-24T23:16:55.608Z,98825.63
2023-02-24T23:19:25.973Z,98822.88
2023-02-24T23:21:56.505Z,98825.63
2023-02-24T23:24:26.518Z,98819.34
2023-02-24T23:26:57.732Z,98819.34
2023-02-24T23:29:28.044Z,98825.94
2023-02-24T23:31:59.235Z,98818.69
2023-02-24T23:34:29.301Z,98820.63
2023-02-24T23:36:59.283Z,98815.16
2023-02-24T23:39:29.357Z,98815.16
2023-02-24T23:41:59.277Z,98813.38
2023-02-24T23:44:29.036Z,98809.97
2023-02-24T23:46:59.782Z,98813.06
2023-02-24T23:49:39.251Z,98809.66
2023-02-24T23:52:13.826Z,98812.72
2023-02-24T23:54:42.421Z,98799.81
2023-02-24T23:57:11.548Z,98806.63
2023-02-24T23:59:39.448Z,98795.47
